North Shore City, New Zealand
Current Conditions -  °F | °C
As of 5:00 PM on Wednesday 22 Oct 2014 (Local Time) from NZAA Reporting Station
Rain Showers Rain Showers  
Wind Chill: 63°   Ceiling: 4100
Heat Index: 63°   Visibility: 6mi
Dew Point: 54°   Wind: 9mph
Humidity: 72%   Direction: 30°NNE
Pressure: 30.09"   Gusts: NA
Location:  36.8°S, 174.75°E
Report Text: NZAA 220500Z AUTO 03008KT 9999 VCSH OVC041/// 17/12 Q1019 TEMPO6000 SHRA FEW020CB
Loading
Personal Weather Stations






























Interactive Weather Map
Tropical Storm Tracking
New forecast layout! Learn more

10-Day Weather Forecast

Advertisements
Track Severe Weather on mobile